Time;durP1;ratioP1;P1;durP2;ratioP2;P2;SDS_P1;SDS_P2;PMS_P1;PMS_P2;Temp;Humidity;BMP_temperature;BMP_pressure;BME280_temperature;BME280_humidity;BME280_pressure;Samples;Min_cycle;Max_cycle;Signal;HPM_P1;HPM_P2
2022/09/20 00:00:41;;;;;;;7.25;2.63;;;22.50;99.90;;;;;;5039959;28;20037;-75
2022/09/20 00:03:08;;;;;;;5.80;3.10;;;22.50;99.90;;;;;;5038884;28;20034;-75
2022/09/20 00:05:35;;;;;;;7.57;2.35;;;22.50;99.90;;;;;;5040245;28;20045;-75
2022/09/20 00:08:02;;;;;;;8.02;2.85;;;22.50;99.90;;;;;;5039609;28;20120;-75
2022/09/20 00:10:29;;;;;;;6.15;2.60;;;22.50;99.90;;;;;;5040491;28;20492;-74
2022/09/20 00:12:56;;;;;;;7.70;2.70;;;22.50;99.90;;;;;;5037025;28;20103;-75
2022/09/20 00:15:22;;;;;;;6.40;3.05;;;22.50;99.90;;;;;;5038500;28;20044;-75
2022/09/20 00:17:47;;;;;;;10.75;2.85;;;22.50;99.90;;;;;;5039799;28;20033;-75
2022/09/20 00:20:13;;;;;;;5.57;3.33;;;22.40;99.90;;;;;;5034987;28;20598;-75
2022/09/20 00:22:39;;;;;;;8.52;3.00;;;22.40;99.90;;;;;;5040771;28;20031;-74
2022/09/20 00:25:05;;;;;;;8.32;3.30;;;22.40;99.90;;;;;;5041538;28;20029;-75
2022/09/20 00:27:31;;;;;;;6.60;3.47;;;22.40;99.90;;;;;;5037162;28;20109;-75
2022/09/20 00:29:57;;;;;;;7.40;3.10;;;22.30;99.90;;;;;;5037009;28;20188;-75
2022/09/20 00:32:23;;;;;;;9.43;3.42;;;22.30;99.90;;;;;;5031290;28;20116;-74
2022/09/20 00:35:07;;;;;;;7.07;3.28;;;22.30;99.90;;;;;;5036020;28;20346;-75
2022/09/20 00:37:34;;;;;;;9.52;3.80;;;22.30;99.90;;;;;;5038313;28;20393;-75
2022/09/20 00:40:01;;;;;;;13.15;3.80;;;22.20;99.90;;;;;;5037301;28;20040;-75
2022/09/20 00:42:30;;;;;;;7.82;3.83;;;22.10;99.90;;;;;;5037723;28;20116;-75
2022/09/20 00:45:05;;;;;;;6.88;3.75;;;22.10;99.90;;;;;;5042602;28;20037;-75
2022/09/20 00:47:40;;;;;;;7.45;3.40;;;22.10;99.90;;;;;;5035006;28;20033;-76
2022/09/20 00:50:07;;;;;;;12.38;4.03;;;22.00;99.90;;;;;;5035552;28;21036;-76
2022/09/20 00:52:35;;;;;;;7.40;3.75;;;22.00;99.90;;;;;;5044445;28;20025;-75
2022/09/20 00:55:05;;;;;;;7.57;3.40;;;22.00;99.90;;;;;;5036809;28;20082;-75
2022/09/20 00:57:34;;;;;;;8.25;3.20;;;21.90;99.90;;;;;;5040328;28;20068;-74
2022/09/20 01:00:03;;;;;;;11.73;3.72;;;22.00;99.90;;;;;;5037855;28;20064;-74
2022/09/20 01:02:30;;;;;;;9.70;3.67;;;22.00;99.90;;;;;;5044056;28;20041;-74
2022/09/20 01:04:57;;;;;;;6.90;3.25;;;21.90;99.90;;;;;;5037586;28;20040;-76
2022/09/20 01:07:24;;;;;;;7.78;4.05;;;21.90;99.90;;;;;;5038625;28;20025;-75
2022/09/20 01:09:51;;;;;;;6.75;3.10;;;21.90;99.90;;;;;;5041326;28;20029;-75
2022/09/20 01:12:27;;;;;;;5.53;3.10;;;21.90;99.90;;;;;;5035772;28;20460;-75
2022/09/20 01:14:54;;;;;;;7.97;3.58;;;21.80;99.90;;;;;;5040485;28;20060;-75
2022/09/20 01:17:23;;;;;;;6.30;3.50;;;21.80;99.90;;;;;;5035575;28;20056;-75
2022/09/20 01:20:10;;;;;;;9.75;3.53;;;21.80;99.90;;;;;;5038387;28;20036;-75
2022/09/20 01:22:44;;;;;;;9.00;3.40;;;21.80;99.90;;;;;;5039252;28;20029;-74
2022/09/20 01:25:26;;;;;;;7.55;3.75;;;21.80;99.90;;;;;;5054446;28;20370;-75
2022/09/20 01:27:53;;;;;;;6.87;3.27;;;21.80;99.90;;;;;;5038891;28;20118;-76
2022/09/20 01:30:35;;;;;;;8.20;3.40;;;21.80;99.90;;;;;;5039185;28;20631;-73
2022/09/20 01:33:13;;;;;;;5.88;3.63;;;21.80;99.90;;;;;;5034727;28;20029;-75
2022/09/20 01:35:44;;;;;;;7.72;3.70;;;21.80;99.90;;;;;;5042712;28;20029;-74
2022/09/20 01:38:19;;;;;;;8.43;3.78;;;21.90;99.90;;;;;;5049194;28;20049;-75
2022/09/20 01:41:35;;;;;;;8.52;3.83;;;21.80;99.90;;;;;;5038272;28;20457;-75
2022/09/20 01:44:10;;;;;;;10.77;4.20;;;21.80;99.90;;;;;;4986183;28;20030;-75
2022/09/20 01:46:36;;;;;;;7.35;3.50;;;21.80;99.90;;;;;;5022795;28;20040;-74
2022/09/20 01:49:36;;;;;;;9.40;3.75;;;21.80;99.90;;;;;;5034569;28;20092;-74
2022/09/20 01:52:34;;;;;;;8.98;4.35;;;21.70;99.90;;;;;;5039503;28;20026;-75
2022/09/20 01:55:14;;;;;;;9.95;4.22;;;21.70;99.90;;;;;;5041140;28;20029;-74
2022/09/20 01:58:10;;;;;;;8.77;4.07;;;21.60;99.90;;;;;;5040008;28;20052;-74
2022/09/20 02:00:57;;;;;;;11.18;4.57;;;21.70;99.90;;;;;;5044789;28;20037;-75
2022/09/20 02:03:46;;;;;;;13.27;5.22;;;21.60;99.90;;;;;;5036634;28;20045;-74
2022/09/20 02:06:28;;;;;;;10.05;5.05;;;21.60;99.90;;;;;;5045001;28;20049;-74
2022/09/20 02:09:31;;;;;;;9.45;5.07;;;21.50;99.90;;;;;;5038063;28;20116;-74
2022/09/20 02:12:15;;;;;;;11.10;5.55;;;21.50;99.90;;;;;;5037665;28;20094;-74
2022/09/20 02:15:01;;;;;;;8.50;5.50;;;21.50;99.90;;;;;;5041592;28;20423;-74
2022/09/20 02:18:02;;;;;;;11.75;6.03;;;21.40;99.90;;;;;;5031442;28;20041;-75
2022/09/20 02:20:31;;;;;;;8.35;5.47;;;21.40;99.90;;;;;;5035575;28;20037;-75
2022/09/20 02:23:21;;;;;;;10.73;5.63;;;21.30;99.90;;;;;;5035093;28;20025;-74
2022/09/20 02:26:16;;;;;;;10.55;5.45;;;21.30;99.90;;;;;;5038994;28;20045;-75
2022/09/20 02:29:03;;;;;;;12.73;5.13;;;21.30;99.90;;;;;;5016628;28;20026;-75
2022/09/20 02:32:02;;;;;;;9.00;5.75;;;21.30;99.90;;;;;;5028452;28;20033;-75
2022/09/20 02:34:35;;;;;;;9.63;5.20;;;21.40;99.90;;;;;;5041070;28;20389;-75
2022/09/20 02:37:24;;;;;;;10.27;5.82;;;21.40;99.90;;;;;;5037539;28;20042;-74
2022/09/20 02:40:14;;;;;;;9.13;5.30;;;21.30;99.90;;;;;;5036641;28;20025;-74
2022/09/20 02:43:01;;;;;;;9.25;5.38;;;21.30;99.90;;;;;;5038635;28;20036;-75
2022/09/20 02:46:21;;;;;;;11.88;5.82;;;21.30;99.90;;;;;;5038863;28;20450;-74
2022/09/20 02:49:16;;;;;;;12.50;5.80;;;21.30;99.90;;;;;;5004660;28;20575;-75
2022/09/20 02:51:53;;;;;;;12.10;6.30;;;21.40;99.90;;;;;;5023807;28;20034;-75
2022/09/20 02:54:43;;;;;;;11.45;6.32;;;21.30;99.90;;;;;;5040681;28;20041;-74
2022/09/20 02:57:42;;;;;;;9.63;6.38;;;21.30;99.90;;;;;;5037342;28;20046;-74
2022/09/20 03:00:21;;;;;;;10.02;5.90;;;21.30;99.90;;;;;;5027982;28;20091;-74
2022/09/20 03:03:23;;;;;;;14.98;5.68;;;21.30;99.90;;;;;;5018895;28;20112;-74
2022/09/20 03:06:16;;;;;;;12.52;6.45;;;21.40;99.90;;;;;;5026199;28;20052;-74
2022/09/20 03:08:57;;;;;;;13.63;6.40;;;21.50;99.90;;;;;;5038106;28;20061;-75
2022/09/20 03:11:55;;;;;;;8.70;5.45;;;21.50;99.90;;;;;;5039032;28;20485;-75
2022/09/20 03:14:29;;;;;;;8.75;5.05;;;21.60;99.90;;;;;;5034125;28;20053;-75
2022/09/20 03:17:22;;;;;;;11.00;5.05;;;21.80;99.90;;;;;;5033994;28;20598;-75
2022/09/20 03:20:11;;;;;;;6.82;4.47;;;21.80;99.90;;;;;;5039509;28;20481;-75
2022/09/20 03:23:13;;;;;;;9.60;5.00;;;21.90;99.90;;;;;;5040326;28;20036;-75
2022/09/20 03:26:15;;;;;;;8.40;4.93;;;21.90;99.90;;;;;;5036407;28;20148;-75
2022/09/20 03:29:02;;;;;;;7.63;4.25;;;22.00;99.90;;;;;;5036097;28;20439;-74
2022/09/20 03:32:05;;;;;;;8.82;5.07;;;22.00;99.90;;;;;;5035114;28;20033;-74
2022/09/20 03:34:39;;;;;;;10.52;4.60;;;22.00;99.90;;;;;;5040757;28;20030;-75
2022/09/20 03:37:11;;;;;;;9.57;4.55;;;22.00;99.90;;;;;;5035178;28;20036;-75
2022/09/20 03:39:40;;;;;;;;;;;22.00;99.90;;;;;;5038931;28;20025;-75
2022/09/20 03:42:17;;;;;;;9.35;4.03;;;22.00;99.90;;;;;;5038615;28;19917;-75
2022/09/20 03:45:17;;;;;;;9.65;4.25;;;22.00;99.90;;;;;;5039003;28;20449;-75
2022/09/20 03:48:13;;;;;;;8.10;4.07;;;22.00;99.90;;;;;;5040300;28;20038;-75
2022/09/20 03:51:09;;;;;;;7.97;4.18;;;22.00;99.90;;;;;;5018105;28;20044;-75
2022/09/20 03:54:03;;;;;;;10.77;4.40;;;22.00;99.90;;;;;;5033182;28;20418;-75
2022/09/20 03:56:51;;;;;;;5.15;3.42;;;21.90;99.90;;;;;;5027299;28;20044;-74
2022/09/20 03:59:16;;;;;;;5.95;3.78;;;21.90;99.90;;;;;;5032021;28;20033;-75
2022/09/20 04:01:51;;;;;;;9.95;4.60;;;21.90;99.90;;;;;;5037091;28;20064;-74
2022/09/20 04:04:42;;;;;;;6.95;3.67;;;21.90;99.90;;;;;;5040303;28;20477;-75
2022/09/20 04:07:17;;;;;;;5.97;3.50;;;21.90;99.90;;;;;;5039995;28;20405;-75
2022/09/20 04:10:13;;;;;;;6.78;3.47;;;21.90;99.90;;;;;;5042541;28;20039;-75
2022/09/20 04:12:39;;;;;;;5.93;3.13;;;22.00;99.90;;;;;;5037524;28;20029;-76
2022/09/20 04:16:02;;;;;;;6.68;3.42;;;21.90;99.90;;;;;;5039759;28;20507;-75
2022/09/20 04:18:31;;;;;;;7.45;3.05;;;21.90;99.90;;;;;;5028202;28;20069;-74
2022/09/20 04:21:03;;;;;;;7.22;3.50;;;21.80;99.90;;;;;;5023262;28;20044;-75
2022/09/20 04:23:29;;;;;;;8.77;4.05;;;21.80;99.90;;;;;;5022727;28;20504;-75
2022/09/20 04:26:04;;;;;;;8.88;5.50;;;21.70;99.90;;;;;;5038887;28;20082;-75
2022/09/20 04:28:46;;;;;;;6.50;2.70;;;21.70;99.90;;;;;;5045843;28;20033;-74
2022/09/20 04:31:31;;;;;;;8.18;3.10;;;21.60;99.90;;;;;;5038559;28;20481;-75
2022/09/20 04:33:59;;;;;;;5.22;2.80;;;21.70;99.90;;;;;;5039695;28;20037;-74
2022/09/20 04:36:57;;;;;;;7.88;2.80;;;21.70;99.90;;;;;;5033332;28;20041;-73
2022/09/20 04:39:31;;;;;;;6.60;2.88;;;21.70;99.90;;;;;;5042627;28;20166;-75
2022/09/20 04:42:15;;;;;;;7.53;3.50;;;21.80;99.90;;;;;;5045344;28;20043;-75
2022/09/20 04:45:07;;;;;;;10.23;3.65;;;21.80;99.90;;;;;;5037766;28;20039;-75
2022/09/20 04:47:48;;;;;;;7.83;3.33;;;21.70;99.90;;;;;;5030251;28;20469;-75
2022/09/20 04:50:25;;;;;;;4.97;3.10;;;21.80;99.90;;;;;;5038620;28;20026;-75
2022/09/20 04:52:51;;;;;;;9.45;2.97;;;21.80;99.90;;;;;;5040250;28;20036;-74
2022/09/20 04:55:28;;;;;;;7.75;2.95;;;21.80;99.90;;;;;;5036239;28;20034;-74
2022/09/20 04:58:16;;;;;;;10.20;3.13;;;21.70;99.90;;;;;;5039961;28;20033;-76
2022/09/20 05:00:59;;;;;;;9.27;3.22;;;21.80;99.90;;;;;;5027705;28;20087;-75
2022/09/20 05:03:35;;;;;;;10.50;3.30;;;21.80;99.90;;;;;;5036026;28;20036;-74
2022/09/20 05:06:33;;;;;;;5.82;3.00;;;21.80;99.90;;;;;;5041343;28;20435;-75
2022/09/20 05:09:20;;;;;;;4.75;2.60;;;21.70;99.90;;;;;;5042747;28;20447;-75
2022/09/20 05:12:23;;;;;;;5.80;2.47;;;21.80;99.90;;;;;;5022075;28;20065;-75
2022/09/20 05:15:10;;;;;;;4.22;2.50;;;21.70;99.90;;;;;;5039496;28;20034;-74
2022/09/20 05:18:08;;;;;;;5.60;2.40;;;21.70;99.90;;;;;;5035894;28;20018;-75
2022/09/20 05:21:07;;;;;;;7.55;2.70;;;21.70;99.90;;;;;;5039597;28;20025;-75
2022/09/20 05:24:03;;;;;;;5.70;2.33;;;21.70;99.90;;;;;;5037119;28;20025;-74
2022/09/20 05:26:38;;;;;;;5.50;2.45;;;21.70;99.90;;;;;;5039329;28;20029;-75
2022/09/20 05:29:22;;;;;;;7.60;3.70;;;21.70;99.90;;;;;;5042800;28;20037;-75
2022/09/20 05:32:03;;;;;;;5.45;2.47;;;21.70;99.90;;;;;;5036487;28;20043;-74
2022/09/20 05:34:51;;;;;;;9.67;3.17;;;21.70;99.90;;;;;;5034277;28;20048;-75
2022/09/20 05:37:28;;;;;;;8.60;4.40;;;21.70;99.90;;;;;;5037562;28;20033;-75
2022/09/20 05:40:10;;;;;;;6.00;3.38;;;21.60;99.90;;;;;;5041992;28;20048;-75
2022/09/20 05:43:10;;;;;;;7.93;4.60;;;21.60;99.90;;;;;;5038750;28;20042;-74
2022/09/20 05:46:15;;;;;;;7.50;3.03;;;21.60;99.90;;;;;;5038422;28;20048;-75
2022/09/20 05:49:18;;;;;;;7.28;2.90;;;21.70;99.90;;;;;;5035752;28;20029;-74
2022/09/20 05:52:03;;;;;;;6.93;2.85;;;21.70;99.90;;;;;;5041752;28;20041;-75
2022/09/20 05:54:35;;;;;;;10.70;2.60;;;21.60;99.90;;;;;;5036666;28;20035;-74
2022/09/20 05:57:31;;;;;;;8.10;2.35;;;21.70;99.90;;;;;;5013678;28;20049;-74
2022/09/20 06:00:12;;;;;;;4.65;2.50;;;21.60;99.90;;;;;;5033544;28;20127;-74
2022/09/20 06:02:58;;;;;;;4.90;2.10;;;21.60;99.90;;;;;;5035609;28;20087;-75
2022/09/20 06:05:44;;;;;;;4.57;2.08;;;21.60;99.90;;;;;;5033905;28;20033;-75
2022/09/20 06:08:26;;;;;;;7.63;2.20;;;21.60;99.90;;;;;;5035062;28;20080;-76
2022/09/20 06:11:29;;;;;;;6.78;2.00;;;21.60;99.90;;;;;;5036403;28;20026;-75
2022/09/20 06:14:02;;;;;;;5.70;2.30;;;21.60;99.90;;;;;;5042186;28;20029;-75
2022/09/20 06:16:45;;;;;;;9.35;3.60;;;21.70;99.90;;;;;;5037084;28;20033;-75
2022/09/20 06:19:25;;;;;;;8.13;2.67;;;21.70;99.90;;;;;;5037555;28;20049;-75
2022/09/20 06:21:58;;;;;;;6.00;2.53;;;21.80;99.90;;;;;;5041835;28;20088;-76
2022/09/20 06:24:30;;;;;;;9.82;2.20;;;21.80;99.90;;;;;;5037664;28;20037;-75
2022/09/20 06:27:01;;;;;;;7.65;2.40;;;21.90;99.90;;;;;;5034980;28;20033;-74
2022/09/20 06:29:39;;;;;;;5.32;2.10;;;21.90;99.90;;;;;;5034126;28;20061;-75
2022/09/20 06:32:05;;;;;;;4.60;2.10;;;21.90;99.90;;;;;;5021370;28;20049;-76
2022/09/20 06:34:31;;;;;;;8.38;2.63;;;22.00;99.90;;;;;;5034533;28;20080;-76
2022/09/20 06:43:19;;;;;;;6.05;2.22;;;21.80;99.90;;;;;;5033166;28;20094;-75
2022/09/20 06:45:47;;;;;;;10.00;2.30;;;21.80;99.90;;;;;;5033710;28;20572;-76
2022/09/20 06:48:14;;;;;;;8.75;2.13;;;21.90;99.90;;;;;;5034853;28;20050;-76
2022/09/20 06:50:44;;;;;;;8.35;2.00;;;21.90;99.90;;;;;;5034435;28;20033;-77
2022/09/20 06:53:16;;;;;;;4.22;1.70;;;22.00;99.90;;;;;;5035796;28;20048;-75
2022/09/20 06:55:43;;;;;;;;;;;22.10;99.90;;;;;;5038514;28;20113;-74
2022/09/20 06:58:10;;;;;;;8.07;1.80;;;22.10;99.90;;;;;;5033077;28;19919;-75
2022/09/20 07:00:38;;;;;;;4.45;2.00;;;22.10;99.90;;;;;;5036207;28;20775;-75
2022/09/20 07:03:03;;;;;;;30.20;21.80;;;22.20;99.90;;;;;;5029719;28;20453;-74
2022/09/20 07:05:29;;;;;;;7.38;4.75;;;22.20;99.90;;;;;;5035504;28;20113;-74
2022/09/20 07:07:57;;;;;;;7.60;2.55;;;22.30;99.90;;;;;;5035531;28;20126;-74
2022/09/20 07:10:26;;;;;;;5.32;2.25;;;22.40;99.90;;;;;;5034053;28;20045;-75
2022/09/20 07:12:59;;;;;;;6.28;1.80;;;22.40;99.90;;;;;;5034452;28;20118;-76
2022/09/20 07:15:27;;;;;;;5.32;2.05;;;22.50;99.90;;;;;;5041843;28;20091;-74
2022/09/20 07:17:53;;;;;;;4.20;1.85;;;22.60;99.90;;;;;;5038524;28;20037;-74
2022/09/20 07:20:19;;;;;;;6.80;2.13;;;22.60;99.90;;;;;;5032514;28;20037;-74
2022/09/20 07:22:46;;;;;;;6.95;2.50;;;22.60;99.90;;;;;;5031293;28;20037;-74
2022/09/20 07:25:13;;;;;;;5.30;2.03;;;22.70;99.90;;;;;;5022431;28;20870;-74
2022/09/20 07:27:39;;;;;;;17.50;2.60;;;22.80;99.90;;;;;;5034381;28;20068;-74
2022/09/20 07:30:07;;;;;;;9.27;2.15;;;22.90;99.90;;;;;;5032419;28;20116;-74
2022/09/20 07:32:32;;;;;;;10.52;2.20;;;23.00;99.90;;;;;;5036017;28;20048;-74
2022/09/20 07:34:58;;;;;;;7.28;2.20;;;23.00;99.90;;;;;;5030764;28;20417;-74
2022/09/20 07:37:24;;;;;;;9.20;1.65;;;23.10;99.90;;;;;;5045544;28;20485;-75
2022/09/20 07:39:51;;;;;;;7.53;2.00;;;23.00;99.90;;;;;;5038612;28;20035;-74
2022/09/20 07:42:17;;;;;;;7.18;2.85;;;23.10;99.90;;;;;;5032490;28;20042;-75
2022/09/20 07:44:42;;;;;;;4.55;2.10;;;23.10;99.90;;;;;;5012947;28;20100;-75
2022/09/20 07:47:09;;;;;;;5.95;1.88;;;23.20;99.90;;;;;;5031637;28;20516;-75
2022/09/20 07:49:36;;;;;;;6.85;2.00;;;23.20;99.90;;;;;;5041001;28;20117;-74
2022/09/20 07:52:03;;;;;;;3.53;1.90;;;23.20;99.90;;;;;;5033398;28;20030;-74
2022/09/20 07:54:29;;;;;;;10.13;1.75;;;23.10;99.90;;;;;;5026736;28;20029;-73
2022/09/20 07:56:54;;;;;;;7.60;2.00;;;23.20;99.90;;;;;;5027811;28;20122;-73
2022/09/20 07:59:20;;;;;;;6.50;2.28;;;23.30;99.90;;;;;;5036681;28;20041;-74
2022/09/20 08:01:46;;;;;;;7.05;2.30;;;23.30;99.90;;;;;;5032864;28;20127;-74
2022/09/20 08:04:13;;;;;;;5.53;1.80;;;23.30;99.90;;;;;;5036806;28;20033;-74
2022/09/20 08:06:41;;;;;;;4.82;1.92;;;23.20;99.90;;;;;;5040510;28;20107;-74
2022/09/20 08:09:08;;;;;;;4.75;1.77;;;23.30;99.90;;;;;;5034084;28;20041;-75
2022/09/20 08:11:34;;;;;;;6.85;2.03;;;23.40;99.90;;;;;;5035216;28;20116;-74
2022/09/20 08:14:01;;;;;;;6.90;2.10;;;23.50;99.90;;;;;;5034278;28;20495;-74
2022/09/20 08:16:28;;;;;;;7.63;2.15;;;23.50;99.90;;;;;;5033002;28;20090;-74
2022/09/20 08:18:56;;;;;;;7.40;2.38;;;23.50;99.90;;;;;;5033294;28;20080;-75
2022/09/20 08:21:24;;;;;;;10.88;2.92;;;23.70;99.90;;;;;;5034341;28;20210;-75
2022/09/20 08:23:50;;;;;;;12.00;2.58;;;23.80;99.90;;;;;;5044175;28;20037;-75
2022/09/20 08:26:22;;;;;;;8.25;2.72;;;23.80;99.90;;;;;;5031265;28;20095;-75
2022/09/20 08:28:51;;;;;;;;;;;24.00;99.90;;;;;;5037017;28;20532;-74
2022/09/20 08:31:18;;;;;;;10.20;2.60;;;24.20;99.90;;;;;;5045651;28;20023;-75
2022/09/20 08:33:45;;;;;;;9.63;2.70;;;24.30;99.90;;;;;;5041122;28;20041;-75
2022/09/20 08:36:14;;;;;;;5.95;2.28;;;24.10;99.90;;;;;;5043780;28;20392;-75
2022/09/20 08:38:40;;;;;;;4.55;2.20;;;23.90;99.90;;;;;;5042428;28;20044;-74
2022/09/20 08:41:35;;;;;;;5.72;2.00;;;23.90;99.90;;;;;;5038875;28;20048;-75
2022/09/20 08:44:15;;;;;;;8.05;2.10;;;24.00;99.90;;;;;;5027134;28;20472;-74
2022/09/20 08:46:46;;;;;;;8.40;1.80;;;24.00;99.90;;;;;;5041887;28;20401;-74
2022/09/20 08:49:25;;;;;;;5.90;1.90;;;24.10;99.90;;;;;;5035466;28;20037;-75
2022/09/20 08:51:53;;;;;;;5.72;2.03;;;24.30;99.90;;;;;;5037330;28;20037;-74
2022/09/20 08:54:22;;;;;;;4.53;1.83;;;24.50;99.90;;;;;;5038052;28;20580;-76
2022/09/20 08:56:49;;;;;;;3.78;1.48;;;24.70;99.90;;;;;;5040526;28;20029;-74
2022/09/20 08:59:20;;;;;;;5.07;1.75;;;24.60;99.90;;;;;;5021016;28;20111;-75
2022/09/20 09:01:50;;;;;;;5.55;1.85;;;24.60;99.90;;;;;;5033241;28;20049;-74
2022/09/20 09:04:22;;;;;;;7.72;2.25;;;24.70;99.90;;;;;;5001286;28;20040;-75
2022/09/20 09:06:50;;;;;;;12.90;2.28;;;25.30;99.90;;;;;;5040363;28;20037;-75
2022/09/20 09:09:25;;;;;;;6.28;1.92;;;25.50;99.90;;;;;;5035170;28;20036;-75
2022/09/20 09:11:52;;;;;;;9.60;2.17;;;25.50;99.90;;;;;;5033654;28;20041;-75
2022/09/20 09:14:48;;;;;;;10.57;2.25;;;25.50;99.90;;;;;;5030416;28;20046;-74
2022/09/20 09:17:19;;;;;;;12.20;2.35;;;25.60;99.90;;;;;;5037909;28;20033;-74
2022/09/20 09:19:56;;;;;;;9.57;2.10;;;25.40;99.90;;;;;;5032312;28;20874;-75
2022/09/20 09:22:39;;;;;;;10.38;2.33;;;25.20;99.90;;;;;;5037095;28;20053;-75
2022/09/20 09:25:17;;;;;;;4.25;1.83;;;25.60;99.90;;;;;;5035240;28;20025;-75
2022/09/20 09:27:49;;;;;;;6.90;1.80;;;25.30;99.90;;;;;;5039616;28;20037;-74
2022/09/20 09:30:25;;;;;;;5.47;1.52;;;25.50;99.90;;;;;;5034544;28;20093;-75
2022/09/20 09:32:52;;;;;;;6.38;1.58;;;26.10;99.90;;;;;;5050944;28;20037;-74
2022/09/20 09:35:21;;;;;;;6.88;1.67;;;26.50;99.90;;;;;;5032283;28;20069;-76
2022/09/20 09:38:01;;;;;;;7.78;1.50;;;26.50;99.90;;;;;;5027207;28;20078;-75
2022/09/20 09:40:30;;;;;;;5.85;1.75;;;26.60;99.90;;;;;;5031385;28;20481;-75
2022/09/20 09:43:02;;;;;;;8.77;2.13;;;26.50;99.90;;;;;;5032840;28;20037;-75
2022/09/20 09:45:37;;;;;;;6.75;1.67;;;26.60;99.90;;;;;;5031226;28;20040;-74
2022/09/20 09:48:25;;;;;;;7.82;1.70;;;27.00;99.90;;;;;;5031510;28;20497;-75
2022/09/20 09:51:08;;;;;;;7.15;1.50;;;26.80;99.90;;;;;;5043469;28;20136;-74
2022/09/20 09:53:35;;;;;;;6.38;1.80;;;26.30;99.90;;;;;;5029261;28;20471;-75
2022/09/20 09:56:06;;;;;;;6.55;1.75;;;25.80;99.90;;;;;;5034736;28;20420;-74
2022/09/20 09:58:58;;;;;;;11.82;1.75;;;25.90;99.90;;;;;;5027711;28;20055;-74
2022/09/20 10:01:54;;;;;;;9.43;1.83;;;26.10;99.90;;;;;;5033651;28;20025;-74
2022/09/20 10:04:40;;;;;;;7.13;1.50;;;26.40;99.90;;;;;;5028425;28;20361;-75
2022/09/20 10:07:18;;;;;;;5.75;1.60;;;26.70;99.90;;;;;;5035164;28;20037;-75
2022/09/20 10:10:29;;;;;;;12.88;2.10;;;27.00;99.90;;;;;;5036064;28;20393;-75
2022/09/20 10:13:34;;;;;;;4.88;1.48;;;27.50;99.90;;;;;;5017891;28;20053;-74
2022/09/20 10:16:19;;;;;;;5.18;1.83;;;27.80;99.90;;;;;;5027698;28;20576;-76
2022/09/20 10:19:01;;;;;;;5.20;1.60;;;27.10;99.90;;;;;;5007722;28;20029;-75
2022/09/20 10:21:50;;;;;;;4.05;1.55;;;26.80;99.90;;;;;;5029207;28;20029;-75
2022/09/20 10:24:54;;;;;;;5.03;1.88;;;26.80;99.90;;;;;;5030717;28;20051;-75
2022/09/20 10:27:41;;;;;;;6.82;1.60;;;27.20;99.90;;;;;;5026755;28;20033;-75
2022/09/20 10:30:17;;;;;;;5.47;1.48;;;26.80;99.90;;;;;;5029542;28;20056;-75
2022/09/20 10:33:00;;;;;;;6.72;2.17;;;26.90;99.90;;;;;;5032446;28;20037;-74
2022/09/20 10:35:47;;;;;;;4.65;1.67;;;27.60;99.90;;;;;;5026388;28;20034;-75
2022/09/20 10:38:25;;;;;;;4.90;1.80;;;28.00;99.90;;;;;;5033042;28;20061;-74
2022/09/20 10:44:03;;;;;;;4.57;1.50;;;27.50;99.90;;;;;;5030659;28;20198;-75
2022/09/20 10:46:59;;;;;;;7.57;1.83;;;27.90;99.90;;;;;;5034256;28;20029;-74
2022/09/20 10:49:56;;;;;;;3.47;1.50;;;27.80;99.90;;;;;;5035896;28;20029;-76
2022/09/20 10:52:50;;;;;;;5.35;1.67;;;28.70;99.90;;;;;;5035598;28;20041;-76
2022/09/20 10:55:46;;;;;;;9.27;1.70;;;28.40;99.90;;;;;;5035126;28;20033;-74
2022/09/20 10:58:51;;;;;;;5.95;1.45;;;29.00;99.70;;;;;;5035349;28;20147;-75
2022/09/20 11:01:37;;;;;;;7.28;1.95;;;28.20;99.90;;;;;;5026495;28;20033;-75
2022/09/20 11:04:15;;;;;;;5.05;1.58;;;28.30;99.90;;;;;;5036338;28;20482;-74
2022/09/20 11:07:03;;;;;;;5.78;1.55;;;27.50;99.90;;;;;;5041436;28;20399;-75
2022/09/20 11:09:35;;;;;;;6.05;1.52;;;27.60;99.90;;;;;;5040381;28;20385;-75
2022/09/20 11:12:25;;;;;;;8.43;1.80;;;28.40;99.90;;;;;;5033349;28;20040;-75
2022/09/20 11:15:21;;;;;;;7.70;1.80;;;28.70;99.90;;;;;;5040467;28;20017;-75
2022/09/20 11:18:00;;;;;;;5.20;1.50;;;28.30;99.90;;;;;;5032770;28;20056;-75
2022/09/20 11:20:36;;;;;;;7.85;1.55;;;28.80;99.90;;;;;;5035908;28;20060;-75
2022/09/20 11:23:10;;;;;;;7.40;1.70;;;28.50;99.90;;;;;;5039113;28;20083;-75
2022/09/20 11:25:43;;;;;;;7.25;1.98;;;28.40;99.90;;;;;;5035165;28;20052;-75
2022/09/20 11:28:19;;;;;;;6.30;1.75;;;28.70;99.90;;;;;;5027343;28;20071;-75
2022/09/20 11:30:54;;;;;;;7.97;1.60;;;28.80;99.70;;;;;;5021819;28;20087;-76
2022/09/20 11:33:51;;;;;;;8.95;1.60;;;29.70;99.20;;;;;;5024348;28;20045;-75
2022/09/20 11:36:33;;;;;;;5.95;1.67;;;30.50;98.50;;;;;;5025295;28;20034;-76
2022/09/20 11:39:38;;;;;;;6.47;2.30;;;29.90;98.30;;;;;;5034612;28;20128;-75
2022/09/20 11:42:05;;;;;;;5.93;1.80;;;29.70;99.10;;;;;;5021214;28;20060;-76
2022/09/20 11:44:33;;;;;;;6.38;1.70;;;29.00;99.50;;;;;;5029193;28;20515;-76
2022/09/20 11:47:25;;;;;;;7.07;1.83;;;29.30;99.30;;;;;;5034615;28;20127;-75
2022/09/20 11:50:31;;;;;;;7.28;1.70;;;29.80;98.90;;;;;;5025811;28;20053;-75
2022/09/20 11:53:28;;;;;;;7.57;1.50;;;30.10;98.20;;;;;;5032176;28;20423;-75
2022/09/20 11:55:56;;;;;;;6.28;1.70;;;29.00;98.90;;;;;;5024002;28;20040;-75
2022/09/20 11:58:22;;;;;;;6.55;1.75;;;30.30;98.50;;;;;;5022534;28;20045;-76
2022/09/20 12:00:51;;;;;;;4.70;1.50;;;31.10;97.70;;;;;;5026624;28;20065;-75
2022/09/20 12:03:35;;;;;;;4.72;1.90;;;30.40;97.50;;;;;;5031442;28;20041;-76
2022/09/20 12:06:19;;;;;;;5.88;1.60;;;30.70;97.40;;;;;;5031699;28;20065;-75
2022/09/20 12:08:49;;;;;;;4.65;1.60;;;31.10;97.20;;;;;;5022788;28;20425;-76
2022/09/20 12:11:25;;;;;;;4.90;1.85;;;30.60;97.10;;;;;;5032102;28;20040;-76
2022/09/20 12:14:00;;;;;;;7.40;1.70;;;30.70;97.50;;;;;;5026608;28;20046;-75
2022/09/20 12:16:44;;;;;;;7.35;1.45;;;30.40;97.30;;;;;;5029514;28;20048;-75
2022/09/20 12:19:35;;;;;;;4.63;1.58;;;29.50;98.30;;;;;;5034491;28;20520;-76
2022/09/20 12:22:02;;;;;;;6.90;1.98;;;30.40;97.90;;;;;;5034713;28;20041;-74
2022/09/20 12:24:34;;;;;;;6.18;2.00;;;30.90;97.40;;;;;;5039953;28;20492;-76
2022/09/20 12:27:01;;;;;;;;;;;31.50;96.80;;;;;;5042489;28;20097;-75
2022/09/20 12:29:30;;;;;;;5.07;1.80;;;31.10;96.60;;;;;;5027724;28;19924;-77
2022/09/20 12:32:39;;;;;;;6.28;1.95;;;30.40;97.40;;;;;;5037145;28;20134;-76
2022/09/20 12:35:37;;;;;;;6.60;1.92;;;30.50;97.50;;;;;;5033537;28;20069;-76
2022/09/20 12:38:30;;;;;;;7.70;2.30;;;30.20;97.40;;;;;;5043433;28;20485;-76
2022/09/20 12:41:11;;;;;;;5.80;1.73;;;29.40;98.30;;;;;;5035413;28;20061;-76
2022/09/20 12:43:49;;;;;;;4.88;1.60;;;28.50;99.20;;;;;;5027303;28;20041;-76
2022/09/20 12:46:32;;;;;;;6.53;1.67;;;27.90;99.90;;;;;;5033296;28;20074;-77
2022/09/20 12:55:24;;;;;;;7.22;2.00;;;28.80;99.40;;;;;;5039529;28;20037;-77
2022/09/20 12:58:15;;;;;;;8.70;1.70;;;29.20;99.00;;;;;;5035383;28;20049;-76
2022/09/20 13:00:57;;;;;;;8.00;1.98;;;29.80;98.60;;;;;;5020812;28;20124;-77
2022/09/20 13:03:36;;;;;;;3.85;1.95;;;29.20;98.80;;;;;;5036329;28;20033;-75
2022/09/20 13:06:09;;;;;;;4.60;1.70;;;29.50;99.00;;;;;;5028232;28;20047;-75
2022/09/20 13:08:52;;;;;;;6.28;1.73;;;30.10;98.80;;;;;;5032055;28;20524;-77
2022/09/20 13:11:19;;;;;;;7.63;2.20;;;29.90;98.40;;;;;;5031477;28;20036;-75
2022/09/20 13:14:11;;;;;;;7.57;2.15;;;29.30;99.30;;;;;;5034712;28;20449;-75
2022/09/20 13:16:51;;;;;;;5.80;1.75;;;29.00;99.40;;;;;;5022504;28;20069;-77
2022/09/20 13:19:29;;;;;;;6.38;2.25;;;29.40;99.50;;;;;;5018065;28;20214;-76
2022/09/20 13:22:18;;;;;;;7.10;1.80;;;30.10;98.70;;;;;;5035765;28;20041;-77
2022/09/20 13:24:47;;;;;;;6.32;1.80;;;29.70;99.10;;;;;;5037360;28;20040;-77
2022/09/20 13:27:24;;;;;;;6.32;1.95;;;29.00;99.40;;;;;;5030520;28;20198;-76
2022/09/20 13:29:52;;;;;;;5.25;1.98;;;28.80;99.90;;;;;;5031445;28;20087;-75
2022/09/20 13:32:29;;;;;;;6.50;1.75;;;29.40;99.50;;;;;;5029453;28;20075;-75
2022/09/20 13:35:17;;;;;;;7.60;1.67;;;30.60;98.10;;;;;;5031894;28;20033;-74
2022/09/20 13:37:46;;;;;;;5.78;1.48;;;30.60;98.00;;;;;;5034048;28;20037;-75
2022/09/20 13:40:32;;;;;;;7.95;1.80;;;29.80;98.70;;;;;;5032090;28;20043;-76
2022/09/20 13:43:01;;;;;;;5.55;1.80;;;30.80;98.00;;;;;;5023984;28;20052;-75
2022/09/20 13:45:27;;;;;;;5.68;1.42;;;31.40;97.10;;;;;;5025841;28;20065;-75
2022/09/20 13:47:56;;;;;;;5.18;1.70;;;31.50;96.90;;;;;;5027485;28;20121;-76
2022/09/20 13:50:33;;;;;;;5.15;1.52;;;31.30;96.80;;;;;;5025526;28;20136;-76
2022/09/20 13:53:01;;;;;;;4.60;1.55;;;31.30;96.90;;;;;;5031610;28;20120;-75
2022/09/20 13:55:39;;;;;;;5.05;1.50;;;30.90;97.30;;;;;;5033323;28;20041;-75
2022/09/20 13:58:14;;;;;;;4.28;1.35;;;31.20;97.30;;;;;;5023826;28;20087;-74
2022/09/20 14:00:54;;;;;;;7.47;1.30;;;31.00;97.00;;;;;;5030308;28;20507;-74